Time;durP1;ratioP1;P1;durP2;ratioP2;P2;SDS_P1;SDS_P2;PMS_P1;PMS_P2;Temp;Humidity;BMP_temperature;BMP_pressure;BME280_temperature;BME280_humidity;BME280_pressure;Samples;Min_cycle;Max_cycle;Signal;HPM_P1;HPM_P2
2021/10/04 00:00:32;;;;;;;;;;;14.10;99.90;;;;;;1908880;73;20480;-74
2021/10/04 00:02:59;;;;;;;;;;;14.10;99.90;;;;;;1911631;74;20198;-74
2021/10/04 00:05:25;;;;;;;;;;;14.10;99.90;;;;;;1906988;74;20192;-74
2021/10/04 00:07:52;;;;;;;;;;;14.10;99.90;;;;;;1914553;74;20204;-74
2021/10/04 00:10:20;;;;;;;;;;;13.90;99.90;;;;;;1912131;74;20445;-73
2021/10/04 00:12:47;;;;;;;;;;;13.80;99.90;;;;;;1915259;74;20143;-74
2021/10/04 00:15:15;;;;;;;;;;;13.80;99.90;;;;;;1915730;74;20199;-75
2021/10/04 00:17:43;;;;;;;;;;;13.90;99.90;;;;;;1914374;74;20195;-74
2021/10/04 00:20:11;;;;;;;;;;;13.80;99.90;;;;;;1915597;74;20403;-72
2021/10/04 00:22:39;;;;;;;;;;;13.90;99.90;;;;;;1915139;74;20270;-74
2021/10/04 00:25:06;;;;;;;;;;;13.80;99.90;;;;;;1914294;74;20152;-74
2021/10/04 00:27:33;;;;;;;;;;;13.80;99.90;;;;;;1911252;74;20237;-74
2021/10/04 00:30:06;;;;;;;;;;;13.90;99.90;;;;;;1910304;74;20642;-73
2021/10/04 00:32:28;;;;;;;;;;;14.00;99.90;;;;;;1909928;74;20202;-74
2021/10/04 00:34:55;;;;;;;;;;;13.80;99.90;;;;;;1909875;74;20251;-74
2021/10/04 00:37:22;;;;;;;;;;;13.80;99.90;;;;;;1911118;74;20252;-73
2021/10/04 00:39:49;;;;;;;;;;;13.70;99.90;;;;;;1907496;74;20251;-74
2021/10/04 00:42:15;;;;;;;;;;;13.80;99.90;;;;;;1906649;74;20219;-73
2021/10/04 00:44:42;;;;;;;;;;;13.80;99.90;;;;;;1910117;74;20185;-74
2021/10/04 00:47:09;;;;;;;;;;;13.80;99.90;;;;;;1911955;73;20216;-74
2021/10/04 00:49:36;;;;;;;;;;;13.80;99.90;;;;;;1907694;74;20153;-73
2021/10/04 00:52:03;;;;;;;;;;;13.70;99.90;;;;;;1908173;74;20224;-73
2021/10/04 00:54:29;;;;;;;;;;;13.70;99.90;;;;;;1907464;74;20275;-72
2021/10/04 00:56:56;;;;;;;;;;;13.60;99.90;;;;;;1907791;73;21747;-72
2021/10/04 00:59:23;;;;;;;;;;;13.70;99.90;;;;;;1952130;72;20180;-74
2021/10/04 01:01:50;;;;;;;;;;;13.70;99.90;;;;;;1953618;71;20167;-73
2021/10/04 01:04:17;;;;;;;;;;;13.70;99.90;;;;;;1946826;73;21111;-74
2021/10/04 01:06:43;;;;;;;;;;;13.80;99.90;;;;;;1955312;72;20209;-74
2021/10/04 01:09:10;;;;;;;;;;;13.70;99.90;;;;;;1920741;73;20443;-72
2021/10/04 01:11:37;;;;;;;;;;;13.70;99.90;;;;;;1918528;73;20247;-73
2021/10/04 01:14:04;;;;;;;;;;;13.70;99.90;;;;;;1919796;73;20195;-74
2021/10/04 01:16:31;;;;;;;;;;;13.60;99.90;;;;;;1919257;73;20499;-73
2021/10/04 01:18:57;;;;;;;;;;;13.60;99.90;;;;;;1921101;73;20200;-72
2021/10/04 01:21:24;;;;;;;;;;;13.60;99.90;;;;;;1920905;73;20533;-71
2021/10/04 01:23:51;;;;;;;;;;;13.60;99.90;;;;;;1916093;73;20149;-72
2021/10/04 01:26:18;;;;;;;;;;;13.50;99.90;;;;;;1914820;73;20482;-72
2021/10/04 01:28:45;;;;;;;;;;;13.60;99.90;;;;;;1916245;73;20207;-73
2021/10/04 01:31:11;;;;;;;;;;;13.60;99.90;;;;;;1914758;73;20181;-74
2021/10/04 01:33:38;;;;;;;;;;;13.50;99.90;;;;;;1913880;73;20205;-72
2021/10/04 01:36:05;;;;;;;;;;;13.50;99.90;;;;;;1914557;73;20295;-74
2021/10/04 01:38:32;;;;;;;;;;;13.40;99.90;;;;;;1923713;73;20236;-74
2021/10/04 01:40:59;;;;;;;;;;;13.50;99.90;;;;;;1918419;73;20251;-74
2021/10/04 01:43:26;;;;;;;;;;;13.60;99.90;;;;;;1917585;73;20185;-73
2021/10/04 01:45:52;;;;;;;;;;;13.40;99.90;;;;;;1915624;73;20223;-73
2021/10/04 01:48:19;;;;;;;;;;;13.40;99.90;;;;;;1923348;73;20200;-73
2021/10/04 01:50:46;;;;;;;;;;;13.40;99.90;;;;;;1920781;73;20244;-73
2021/10/04 01:53:13;;;;;;;;;;;13.50;99.90;;;;;;1919529;73;20210;-73
2021/10/04 01:55:40;;;;;;;;;;;13.40;99.90;;;;;;1915816;73;20213;-73
2021/10/04 01:58:06;;;;;;;;;;;13.40;99.90;;;;;;1917979;73;20256;-72
2021/10/04 02:00:34;;;;;;;;;;;13.50;99.90;;;;;;1919557;73;20272;-72
2021/10/04 02:03:00;;;;;;;;;;;13.40;99.90;;;;;;1916476;73;20207;-71
2021/10/04 02:05:29;;;;;;;;;;;13.50;99.90;;;;;;1917883;73;20197;-73
2021/10/04 02:07:56;;;;;;;;;;;13.40;99.90;;;;;;1918673;71;20275;-72
2021/10/04 02:10:24;;;;;;;;;;;13.50;99.90;;;;;;1913507;73;20172;-72
2021/10/04 02:12:50;;;;;;;;;;;13.50;99.90;;;;;;1918343;73;20175;-72
2021/10/04 02:15:18;;;;;;;;;;;13.50;99.90;;;;;;1914433;73;20220;-72
2021/10/04 02:17:44;;;;;;;;;;;13.50;99.90;;;;;;1914227;73;20210;-72
2021/10/04 02:20:13;;;;;;;;;;;13.50;99.90;;;;;;1911473;73;20189;-72
2021/10/04 02:22:40;;;;;;;;;;;13.60;99.90;;;;;;1914649;73;20145;-73
2021/10/04 02:25:08;;;;;;;;;;;13.60;99.90;;;;;;1914256;73;20234;-73
2021/10/04 02:27:34;;;;;;;;;;;13.70;99.90;;;;;;1914386;73;20396;-72
2021/10/04 02:30:01;;;;;;;;;;;13.80;99.90;;;;;;1920048;73;20474;-73
2021/10/04 02:32:28;;;;;;;;;;;13.80;99.90;;;;;;1916633;73;20157;-72
2021/10/04 02:34:55;;;;;;;;;;;13.60;99.90;;;;;;1918559;73;20327;-72
2021/10/04 02:37:22;;;;;;;;;;;13.60;99.90;;;;;;1920741;73;20211;-72
2021/10/04 02:39:49;;;;;;;;;;;13.60;99.90;;;;;;1924017;73;20282;-72
2021/10/04 02:42:15;;;;;;;;;;;13.60;99.90;;;;;;1913013;73;20216;-72
2021/10/04 02:44:42;;;;;;;;;;;13.50;99.90;;;;;;1916319;73;20226;-71
2021/10/04 02:47:09;;;;;;;;;;;13.50;99.90;;;;;;1916494;73;20583;-71
2021/10/04 02:49:36;;;;;;;;;;;13.50;99.90;;;;;;1917455;73;20204;-71
2021/10/04 02:52:03;;;;;;;;;;;13.40;99.90;;;;;;1915358;73;20403;-72
2021/10/04 02:54:30;;;;;;;;;;;13.40;99.90;;;;;;1918660;73;20207;-72
2021/10/04 02:56:57;;;;;;;;;;;13.50;99.90;;;;;;1917117;73;20214;-72
2021/10/04 02:59:23;;;;;;;;;;;13.50;99.90;;;;;;1920837;73;20147;-71
2021/10/04 03:01:51;;;;;;;;;;;13.50;99.90;;;;;;1917144;73;20277;-72
2021/10/04 03:04:18;;;;;;;;;;;13.60;99.90;;;;;;1916510;73;20238;-73
2021/10/04 03:06:45;;;;;;;;;;;13.60;99.90;;;;;;1916585;73;20136;-73
2021/10/04 03:09:12;;;;;;;;;;;13.50;99.90;;;;;;1920186;73;20186;-73
2021/10/04 03:11:39;;;;;;;;;;;13.40;99.90;;;;;;1919586;73;20237;-73
2021/10/04 03:14:05;;;;;;;;;;;13.50;99.90;;;;;;1918186;73;20141;-72
2021/10/04 03:16:32;;;;;;;;;;;13.50;99.90;;;;;;1918997;73;20204;-73
2021/10/04 03:18:59;;;;;;;;;;;13.50;99.90;;;;;;1918240;73;20226;-73
2021/10/04 03:21:26;;;;;;;;;;;13.50;99.90;;;;;;1919163;73;20142;-72
2021/10/04 03:23:53;;;;;;;;;;;13.40;99.90;;;;;;1920018;73;20193;-72
2021/10/04 03:26:20;;;;;;;;;;;13.40;99.90;;;;;;1916249;73;20222;-72
2021/10/04 03:28:46;;;;;;;;;;;13.40;99.90;;;;;;1916832;73;20189;-73
2021/10/04 03:31:13;;;;;;;;;;;13.40;99.90;;;;;;1917197;73;20232;-73
2021/10/04 03:33:40;;;;;;;;;;;13.40;99.90;;;;;;1914360;73;20150;-72
2021/10/04 03:36:07;;;;;;;;;;;13.40;99.90;;;;;;1917532;73;20227;-72
2021/10/04 03:38:34;;;;;;;;;;;13.40;99.90;;;;;;1916978;73;20149;-72
2021/10/04 03:41:01;;;;;;;;;;;13.30;99.90;;;;;;1916776;73;20208;-73
2021/10/04 03:43:27;;;;;;;;;;;13.30;99.90;;;;;;1916574;73;20257;-73
2021/10/04 03:45:54;;;;;;;;;;;13.30;99.90;;;;;;1912242;73;20192;-73
2021/10/04 03:48:21;;;;;;;;;;;13.30;99.90;;;;;;1916918;73;20248;-73
2021/10/04 03:50:48;;;;;;;;;;;13.30;99.90;;;;;;1917572;73;20150;-73
2021/10/04 03:53:15;;;;;;;;;;;13.30;99.90;;;;;;1915340;73;20560;-73
2021/10/04 03:55:42;;;;;;;;;;;13.30;99.90;;;;;;1919319;73;20153;-73
2021/10/04 03:58:08;;;;;;;;;;;13.20;99.90;;;;;;1920831;73;20142;-73
2021/10/04 04:00:35;;;;;;;;;;;13.20;99.90;;;;;;1918249;73;20187;-73
2021/10/04 04:03:04;;;;;;;;;;;13.20;99.90;;;;;;1916988;73;20177;-73
2021/10/04 04:05:32;;;;;;;;;;;13.20;99.90;;;;;;1918899;73;20147;-73
2021/10/04 04:07:58;;;;;;;;;;;13.20;99.90;;;;;;1920832;73;20406;-73
2021/10/04 04:10:25;;;;;;;;;;;13.10;99.90;;;;;;1916011;73;20179;-73
2021/10/04 04:12:52;;;;;;;;;;;13.00;99.90;;;;;;1918060;73;20219;-72
2021/10/04 04:15:19;;;;;;;;;;;13.10;99.90;;;;;;1917382;73;20427;-73
2021/10/04 04:17:46;;;;;;;;;;;13.10;99.90;;;;;;1919366;73;20207;-73
2021/10/04 04:20:12;;;;;;;;;;;13.10;99.90;;;;;;1920166;73;20504;-73
2021/10/04 04:22:40;;;;;;;;;;;13.10;99.90;;;;;;1920192;73;20259;-72
2021/10/04 04:25:07;;;;;;;;;;;13.10;99.90;;;;;;1915989;73;21175;-72
2021/10/04 04:27:35;;;;;;;;;;;13.10;99.90;;;;;;1917660;73;20258;-72
2021/10/04 04:30:02;;;;;;;;;;;13.10;99.90;;;;;;1916013;73;20233;-74
2021/10/04 04:32:28;;;;;;;;;;;13.00;99.90;;;;;;1918952;73;20223;-74
2021/10/04 04:34:55;;;;;;;;;;;13.00;99.90;;;;;;1917090;73;20189;-73
2021/10/04 04:37:23;;;;;;;;;;;12.90;99.90;;;;;;1917707;73;20531;-72
2021/10/04 04:39:50;;;;;;;;;;;13.00;99.90;;;;;;1919808;73;20497;-74
2021/10/04 04:42:16;;;;;;;;;;;13.00;99.90;;;;;;1921432;73;20235;-73
2021/10/04 04:44:43;;;;;;;;;;;13.00;99.90;;;;;;1917876;73;20230;-74
2021/10/04 04:47:10;;;;;;;;;;;12.90;99.90;;;;;;1919196;73;20238;-73
2021/10/04 04:49:37;;;;;;;;;;;12.90;99.90;;;;;;1918853;73;20193;-73
2021/10/04 04:52:04;;;;;;;;;;;12.90;99.90;;;;;;1920331;73;20222;-74
2021/10/04 04:54:30;;;;;;;;;;;13.00;99.90;;;;;;1919419;73;20529;-73
2021/10/04 04:56:59;;;;;;;;;;;12.90;99.90;;;;;;1912169;73;20231;-73
2021/10/04 04:59:26;;;;;;;;;;;12.80;99.90;;;;;;1919724;73;20157;-73
2021/10/04 05:01:53;;;;;;;;;;;12.90;99.90;;;;;;1916399;73;20208;-73
2021/10/04 05:04:19;;;;;;;;;;;13.00;99.90;;;;;;1918790;73;20253;-73
2021/10/04 05:06:46;;;;;;;;;;;13.00;99.90;;;;;;1921083;73;20270;-72
2021/10/04 05:09:13;;;;;;;;;;;12.90;99.90;;;;;;1920209;73;20573;-72
2021/10/04 05:11:40;;;;;;;;;;;12.90;99.90;;;;;;1919477;73;20192;-73
2021/10/04 05:14:07;;;;;;;;;;;12.90;99.90;;;;;;1918708;73;20275;-73
2021/10/04 05:16:38;;;;;;;;;;;13.00;99.90;;;;;;1919154;73;20207;-72
2021/10/04 05:19:02;;;;;;;;;;;13.00;99.90;;;;;;1913176;73;20199;-73
2021/10/04 05:21:29;;;;;;;;;;;13.00;99.90;;;;;;1916767;73;20204;-73
2021/10/04 05:23:56;;;;;;;;;;;12.90;99.90;;;;;;1919804;73;20538;-74
2021/10/04 05:26:23;;;;;;;;;;;13.00;99.90;;;;;;1916750;73;20147;-73
2021/10/04 05:28:49;;;;;;;;;;;13.00;99.90;;;;;;1917400;73;20492;-73
2021/10/04 05:31:16;;;;;;;;;;;12.90;99.90;;;;;;1916220;73;20253;-73
2021/10/04 05:33:43;;;;;;;;;;;12.90;99.90;;;;;;1922878;73;20501;-72
2021/10/04 05:36:10;;;;;;;;;;;12.90;99.90;;;;;;1918451;73;20187;-72
2021/10/04 05:38:37;;;;;;;;;;;13.00;99.90;;;;;;1917477;73;20699;-72
2021/10/04 05:41:04;;;;;;;;;;;13.10;99.90;;;;;;1922141;73;20576;-74
2021/10/04 05:43:32;;;;;;;;;;;13.00;99.90;;;;;;1919817;73;20829;-72
2021/10/04 05:46:00;;;;;;;;;;;13.10;99.90;;;;;;1916661;73;20137;-73
2021/10/04 05:48:27;;;;;;;;;;;13.20;99.90;;;;;;1919972;73;20249;-76
2021/10/04 05:50:54;;;;;;;;;;;13.10;99.90;;;;;;1920686;73;20197;-75
2021/10/04 05:53:21;;;;;;;;;;;13.10;99.90;;;;;;1919428;73;20145;-72
2021/10/04 05:55:48;;;;;;;;;;;13.10;99.90;;;;;;1917286;73;20274;-71
2021/10/04 05:58:15;;;;;;;;;;;13.10;99.90;;;;;;1922279;73;20188;-71
2021/10/04 06:00:43;;;;;;;;;;;13.10;99.90;;;;;;1924777;73;20190;-71
2021/10/04 06:03:10;;;;;;;;;;;13.10;99.90;;;;;;1922714;73;20234;-71
2021/10/04 06:05:37;;;;;;;;;;;13.10;99.90;;;;;;1925150;73;20183;-69
2021/10/04 06:08:03;;;;;;;;;;;13.10;99.90;;;;;;1916031;73;20939;-70
2021/10/04 06:10:30;;;;;;;;;;;13.00;99.90;;;;;;1927326;73;20506;-71
2021/10/04 06:12:57;;;;;;;;;;;13.10;99.90;;;;;;1928609;73;20180;-70
2021/10/04 06:15:24;;;;;;;;;;;13.00;99.90;;;;;;1923334;73;20234;-71
2021/10/04 06:17:51;;;;;;;;;;;13.10;99.90;;;;;;1925822;73;20567;-71
2021/10/04 06:20:18;;;;;;;;;;;13.20;99.90;;;;;;1918714;73;20227;-72
2021/10/04 06:22:45;;;;;;;;;;;13.10;99.90;;;;;;1926011;73;20222;-72
2021/10/04 06:25:13;;;;;;;;;;;13.10;99.90;;;;;;1921894;73;20178;-73
2021/10/04 06:27:40;;;;;;;;;;;13.20;99.90;;;;;;1934654;71;20442;-72
2021/10/04 06:30:07;;;;;;;;;;;13.20;99.90;;;;;;1929143;73;20147;-72
2021/10/04 06:32:35;;;;;;;;;;;13.20;99.90;;;;;;1925877;73;20152;-71
2021/10/04 06:35:02;;;;;;;;;;;13.20;99.90;;;;;;1925523;73;20143;-71
2021/10/04 06:37:28;;;;;;;;;;;13.30;99.90;;;;;;1924542;73;20180;-71
2021/10/04 06:39:55;;;;;;;;;;;13.30;99.90;;;;;;1923945;73;20184;-72
2021/10/04 06:42:24;;;;;;;;;;;13.30;99.90;;;;;;1922475;73;20147;-72
2021/10/04 06:44:51;;;;;;;;;;;13.30;99.90;;;;;;1931948;73;20272;-72
2021/10/04 06:47:18;;;;;;;;;;;13.40;99.90;;;;;;1928501;72;20213;-72
2021/10/04 06:49:45;;;;;;;;;;;13.40;99.90;;;;;;1922479;73;20155;-71
2021/10/04 06:52:12;;;;;;;;;;;13.40;99.90;;;;;;1929140;73;20214;-72
2021/10/04 06:54:39;;;;;;;;;;;13.40;99.90;;;;;;1924465;73;20145;-72
2021/10/04 06:57:06;;;;;;;;;;;13.50;99.90;;;;;;1931713;70;20205;-73
2021/10/04 06:59:34;;;;;;;;;;;13.50;99.90;;;;;;1931766;73;20132;-73
2021/10/04 07:02:01;;;;;;;;;;;13.50;99.90;;;;;;1926493;73;20124;-73
2021/10/04 07:04:28;;;;;;;;;;;13.50;99.90;;;;;;1925459;73;20170;-73
2021/10/04 07:06:55;;;;;;;;;;;13.50;99.90;;;;;;1924324;73;20414;-73
2021/10/04 07:09:22;;;;;;;;;;;13.60;99.90;;;;;;1895163;74;20178;-73
2021/10/04 07:11:49;;;;;;;;;;;13.60;99.90;;;;;;1894536;74;20129;-73
2021/10/04 07:14:16;;;;;;;;;;;13.60;99.90;;;;;;1893567;74;20184;-73
2021/10/04 07:16:42;;;;;;;;;;;13.70;99.90;;;;;;1888295;75;20176;-73
2021/10/04 07:19:09;;;;;;;;;;;13.70;99.90;;;;;;1887873;75;20207;-73
2021/10/04 07:21:36;;;;;;;;;;;13.70;99.90;;;;;;1887867;75;20184;-73
2021/10/04 07:24:03;;;;;;;;;;;13.70;99.90;;;;;;1893476;74;20143;-73
2021/10/04 07:26:30;;;;;;;;;;;13.60;99.90;;;;;;1890447;74;20188;-73
2021/10/04 07:28:57;;;;;;;;;;;13.70;99.90;;;;;;1887995;75;20156;-73
2021/10/04 07:31:24;;;;;;;;;;;13.70;99.90;;;;;;1891021;74;20175;-73
2021/10/04 07:33:51;;;;;;;;;;;13.60;99.90;;;;;;1899274;74;20224;-73
2021/10/04 07:36:17;;;;;;;;;;;13.70;99.90;;;;;;1892616;74;20154;-73
2021/10/04 07:38:44;;;;;;;;;;;13.70;99.90;;;;;;1893403;74;20203;-74
2021/10/04 07:41:11;;;;;;;;;;;13.70;99.90;;;;;;1906742;74;20201;-73
2021/10/04 07:43:38;;;;;;;;;;;13.70;99.90;;;;;;1892500;74;20249;-74
2021/10/04 07:46:06;;;;;;;;;;;13.70;99.90;;;;;;1896315;74;20178;-73
2021/10/04 07:48:33;;;;;;;;;;;13.70;99.90;;;;;;1903122;74;20153;-73
2021/10/04 07:51:01;;;;;;;;;;;13.70;99.90;;;;;;1894551;74;20178;-73
2021/10/04 07:53:27;;;;;;;;;;;13.70;99.90;;;;;;1893662;74;20315;-74
2021/10/04 07:55:54;;;;;;;;;;;13.80;99.90;;;;;;1901465;74;20538;-73
2021/10/04 07:58:21;;;;;;;;;;;13.70;99.90;;;;;;1893200;74;20170;-73
2021/10/04 08:00:48;;;;;;;;;;;13.70;99.90;;;;;;1891222;74;20156;-72
2021/10/04 08:03:15;;;;;;;;;;;13.70;99.90;;;;;;1890755;74;20174;-73
2021/10/04 08:05:42;;;;;;;;;;;13.80;99.90;;;;;;1895334;74;20183;-73
2021/10/04 08:08:08;;;;;;;;;;;13.80;99.90;;;;;;1894296;74;20250;-75
2021/10/04 08:10:35;;;;;;;;;;;13.80;99.90;;;;;;1887529;75;20687;-73
2021/10/04 08:13:04;;;;;;;;;;;13.80;99.90;;;;;;1890292;74;20146;-73
2021/10/04 08:15:31;;;;;;;;;;;13.80;99.90;;;;;;1889673;74;20378;-73
2021/10/04 08:17:58;;;;;;;;;;;13.90;99.90;;;;;;1889129;74;20209;-73
2021/10/04 08:20:24;;;;;;;;;;;13.80;99.90;;;;;;1902319;74;20233;-73
2021/10/04 08:22:52;;;;;;;;;;;13.90;99.90;;;;;;1889682;74;20459;-73
2021/10/04 08:25:19;;;;;;;;;;;13.90;99.90;;;;;;1900230;74;20228;-73
2021/10/04 08:27:46;;;;;;;;;;;13.90;99.90;;;;;;1901932;74;20145;-73
2021/10/04 08:30:13;;;;;;;;;;;13.90;99.90;;;;;;1898426;74;20281;-73
2021/10/04 08:32:40;;;;;;;;;;;13.90;99.90;;;;;;1900471;74;20229;-73
2021/10/04 08:35:07;;;;;;;;;;;13.90;99.90;;;;;;1900429;74;20132;-73
2021/10/04 08:37:34;;;;;;;;;;;13.90;99.90;;;;;;1902701;74;20226;-73
2021/10/04 08:40:02;;;;;;;;;;;13.90;99.90;;;;;;1899839;74;20468;-73
2021/10/04 08:42:31;;;;;;;;;;;14.00;99.90;;;;;;1900060;74;20191;-73
2021/10/04 08:44:58;;;;;;;;;;;14.00;99.90;;;;;;1897331;74;20221;-73
2021/10/04 08:47:25;;;;;;;;;;;14.00;99.90;;;;;;1899581;74;20224;-73
2021/10/04 08:49:51;;;;;;;;;;;14.00;99.90;;;;;;1899298;74;20170;-73
2021/10/04 08:52:19;;;;;;;;;;;14.00;99.90;;;;;;1892606;74;20190;-73
2021/10/04 08:54:47;;;;;;;;;;;14.00;99.90;;;;;;1895673;74;20494;-72
2021/10/04 08:57:14;;;;;;;;;;;14.00;99.90;;;;;;1899760;74;20476;-72
2021/10/04 08:59:41;;;;;;;;;;;14.00;99.90;;;;;;1854807;76;20206;-73
2021/10/04 09:02:24;;;;;;;;;;;14.10;99.90;;;;;;1858748;75;20211;-72
2021/10/04 09:05:09;;;;;;;;;;;14.10;99.90;;;;;;1857491;76;20228;-73
2021/10/04 09:07:43;;;;;;;;;;;14.10;99.90;;;;;;1844399;76;20215;-72
2021/10/04 09:10:11;;;;;;;;;;;14.10;99.90;;;;;;1840729;76;20200;-73
2021/10/04 09:12:42;;;;;;;;;;;14.10;99.90;;;;;;1843512;76;20123;-73
2021/10/04 09:15:14;;;;;;;;;;;14.20;99.90;;;;;;1842527;76;20166;-72
2021/10/04 09:17:40;;;;;;;;;;;14.20;99.90;;;;;;1842254;76;20178;-72
2021/10/04 09:20:07;;;;;;;;;;;14.20;99.90;;;;;;1846772;76;20115;-72
2021/10/04 09:22:34;;;;;;;;;;;14.30;99.90;;;;;;1847475;76;20123;-73
2021/10/04 09:25:02;;;;;;;;;;;14.30;99.90;;;;;;1846389;76;20211;-73
2021/10/04 09:27:31;;;;;;;;;;;14.30;99.90;;;;;;1846059;76;20213;-73
2021/10/04 09:29:58;;;;;;;;;;;14.30;99.90;;;;;;1847106;76;20221;-73
2021/10/04 09:32:30;;;;;;;;;;;14.40;99.90;;;;;;1845667;76;20186;-73
2021/10/04 09:35:16;;;;;;;;;;;14.40;99.90;;;;;;1843161;76;20264;-73
2021/10/04 09:37:44;;;;;;;;;;;14.50;99.90;;;;;;1846121;76;20260;-73
2021/10/04 09:40:30;;;;;;;;;;;14.50;99.90;;;;;;1846819;76;20214;-73
2021/10/04 09:42:57;;;;;;;;;;;14.50;99.90;;;;;;1847506;76;20220;-73
2021/10/04 09:45:24;;;;;;;;;;;14.50;99.90;;;;;;1843627;76;20134;-73
2021/10/04 09:47:52;;;;;;;;;;;14.60;99.90;;;;;;1847523;76;20562;-74
2021/10/04 09:50:20;;;;;;;;;;;14.50;99.90;;;;;;1848325;76;20548;-74
2021/10/04 09:52:49;;;;;;;;;;;14.60;99.90;;;;;;1844094;76;20216;-73
2021/10/04 09:55:26;;;;;;;;;;;14.60;99.90;;;;;;1843385;76;20221;-74
2021/10/04 09:57:55;;;;;;;;;;;14.70;99.90;;;;;;1846997;76;20170;-73
2021/10/04 10:00:22;;;;;;;;;;;14.70;99.90;;;;;;1844251;76;20218;-74
2021/10/04 10:02:54;;;;;;;;;;;14.70;99.90;;;;;;1845179;76;20391;-74
2021/10/04 10:05:17;;;;;;;;;;;14.70;99.90;;;;;;1840028;76;20451;-74
2021/10/04 10:07:44;;;;;;;;;;;14.70;99.90;;;;;;1840663;78;20287;-74
2021/10/04 10:10:11;;;;;;;;;;;14.80;99.90;;;;;;1836392;77;20165;-74
2021/10/04 10:12:38;;;;;;;;;;;14.90;99.90;;;;;;1844358;76;20259;-74
2021/10/04 10:15:05;;;;;;;;;;;14.90;99.90;;;;;;1844921;76;20535;-74
2021/10/04 10:17:33;;;;;;;;;;;15.00;99.90;;;;;;1847061;76;20184;-74
2021/10/04 10:20:00;;;;;;;;;;;15.00;99.90;;;;;;1846284;76;20219;-74
2021/10/04 10:22:32;;;;;;;;;;;15.00;99.90;;;;;;1845818;76;20127;-74
2021/10/04 10:25:00;;;;;;;;;;;15.00;99.90;;;;;;1843482;76;20270;-73
2021/10/04 10:27:37;;;;;;;;;;;15.00;99.90;;;;;;1843663;76;20178;-73
2021/10/04 10:30:18;;;;;;;;;;;15.00;99.90;;;;;;1844203;76;20242;-74
2021/10/04 10:32:45;;;;;;;;;;;15.10;99.90;;;;;;1843987;76;20411;-74
2021/10/04 10:35:31;;;;;;;;;;;15.10;99.90;;;;;;1846685;76;20169;-74
2021/10/04 10:37:58;;;;;;;;;;;15.20;99.90;;;;;;1815429;77;20212;-73
2021/10/04 10:40:26;;;;;;;;;;;15.20;99.90;;;;;;1852528;76;20221;-73
2021/10/04 10:43:10;;;;;;;;;;;15.20;99.90;;;;;;1850970;75;20548;-74
2021/10/04 10:45:44;;;;;;;;;;;15.20;99.90;;;;;;1851013;75;20220;-73
2021/10/04 10:48:11;;;;;;;;;;;15.30;99.90;;;;;;1851407;75;20236;-73
2021/10/04 10:50:39;;;;;;;;;;;15.30;99.90;;;;;;1852858;75;20115;-73
2021/10/04 10:53:07;;;;;;;;;;;15.30;99.90;;;;;;1851983;75;20506;-73
2021/10/04 10:55:39;;;;;;;;;;;15.40;99.90;;;;;;1853871;75;20181;-73
2021/10/04 10:58:09;;;;;;;;;;;15.40;99.90;;;;;;1852247;75;20137;-73
2021/10/04 11:00:49;;;;;;;;;;;15.50;99.90;;;;;;1852041;75;20187;-72
2021/10/04 11:03:18;;;;;;;;;;;15.50;99.90;;;;;;1810004;77;20214;-73
2021/10/04 11:05:52;;;;;;;;;;;15.50;99.90;;;;;;1893458;74;20483;-72
2021/10/04 11:08:24;;;;;;;;;;;15.50;99.90;;;;;;1884241;76;20216;-73
2021/10/04 11:10:52;;;;;;;;;;;15.40;99.90;;;;;;1885720;76;20567;-72
2021/10/04 11:13:36;;;;;;;;;;;15.40;99.90;;;;;;1882479;76;20188;-72
2021/10/04 11:16:07;;;;;;;;;;;15.40;99.90;;;;;;1883618;76;21252;-72
2021/10/04 11:18:41;;;;;;;;;;;15.40;99.90;;;;;;1888617;74;20168;-72
2021/10/04 11:21:09;;;;;;;;;;;15.40;99.90;;;;;;1845169;77;20212;-72
2021/10/04 11:23:43;;;;;;;;;;;15.40;99.90;;;;;;1847203;76;20720;-71
2021/10/04 11:26:12;;;;;;;;;;;15.50;99.90;;;;;;1848559;75;20183;-71
2021/10/04 11:28:42;;;;;;;;;;;15.60;99.90;;;;;;1852195;75;20117;-71
2021/10/04 11:31:13;;;;;;;;;;;15.70;99.90;;;;;;1848425;75;20891;-72
2021/10/04 11:33:53;;;;;;;;;;;15.80;99.90;;;;;;1815504;77;20247;-71
2021/10/04 11:36:22;;;;;;;;;;;15.90;99.90;;;;;;1843699;76;20215;-71
2021/10/04 11:38:50;;;;;;;;;;;15.90;99.90;;;;;;1850539;76;20282;-71
2021/10/04 11:41:31;;;;;;;;;;;16.00;99.90;;;;;;1856012;76;20419;-71
2021/10/04 11:43:59;;;;;;;;;;;16.00;99.90;;;;;;1855650;77;20173;-71
2021/10/04 11:46:27;;;;;;;;;;;16.30;99.90;;;;;;1859018;76;20161;-72
2021/10/04 11:49:05;;;;;;;;;;;16.60;99.90;;;;;;1857251;76;20194;-71
2021/10/04 11:51:34;;;;;;;;;;;16.70;99.90;;;;;;1853753;76;20197;-71
2021/10/04 11:54:01;;;;;;;;;;;16.70;99.90;;;;;;1853109;77;20505;-72
2021/10/04 11:56:28;;;;;;;;;;;16.60;99.90;;;;;;1857669;77;20225;-71
2021/10/04 11:58:59;;;;;;;;;;;16.70;99.90;;;;;;1856866;77;20427;-72
2021/10/04 12:01:33;;;;;;;;;;;16.80;99.90;;;;;;1854270;76;20519;-72
2021/10/04 12:04:08;;;;;;;;;;;17.00;99.90;;;;;;1851360;77;20494;-72
2021/10/04 12:06:35;;;;;;;;;;;17.00;99.90;;;;;;1854273;76;20157;-72
2021/10/04 12:09:03;;;;;;;;;;;17.10;99.90;;;;;;1850008;76;20215;-72
2021/10/04 12:11:30;;;;;;;;;;;17.50;99.90;;;;;;1857724;76;20259;-72
2021/10/04 12:13:56;;;;;;;;;;;17.80;99.90;;;;;;1854445;77;20167;-72
2021/10/04 12:16:25;;;;;;;;;;;18.10;99.90;;;;;;1856588;76;20189;-72
2021/10/04 12:19:00;;;;;;;;;;;18.20;99.90;;;;;;1852365;75;20844;-72
2021/10/04 12:21:33;;;;;;;;;;;18.40;99.90;;;;;;1842837;75;20201;-72
2021/10/04 12:24:08;;;;;;;;;;;18.50;99.90;;;;;;1842940;77;20154;-73
2021/10/04 12:26:49;;;;;;;;;;;18.70;99.90;;;;;;1881719;74;20178;-73
2021/10/04 12:29:29;;;;;;;;;;;18.80;99.90;;;;;;1883214;76;20129;-73
2021/10/04 12:31:57;;;;;;;;;;;19.10;99.90;;;;;;1888198;75;20210;-72
2021/10/04 12:34:25;;;;;;;;;;;19.30;99.90;;;;;;1890988;74;20179;-72
2021/10/04 12:36:53;;;;;;;;;;;19.30;99.90;;;;;;1891324;75;20139;-72
2021/10/04 12:39:20;;;;;;;;;;;19.30;99.90;;;;;;1890292;74;20436;-73
2021/10/04 12:41:50;;;;;;;;;;;19.70;99.90;;;;;;1881477;74;20215;-72
2021/10/04 12:44:18;;;;;;;;;;;19.80;99.90;;;;;;1841500;76;20513;-72
2021/10/04 12:47:03;;;;;;;;;;;19.50;99.90;;;;;;1886500;74;20393;-72
2021/10/04 12:49:37;;;;;;;;;;;19.50;99.90;;;;;;1889809;74;20217;-72
2021/10/04 12:52:05;;;;;;;;;;;19.60;99.90;;;;;;1893926;74;20432;-72
2021/10/04 12:54:33;;;;;;;;;;;19.80;99.90;;;;;;1891457;74;20186;-72
2021/10/04 12:56:59;;;;;;;;;;;19.70;99.90;;;;;;1890800;74;20202;-72
2021/10/04 12:59:27;;;;;;;;;;;19.80;99.90;;;;;;1952268;72;20976;-72
2021/10/04 13:02:08;;;;;;;;;;;20.00;99.90;;;;;;1977253;72;20426;-72
2021/10/04 13:04:33;;;;;;;;;;;20.00;99.90;;;;;;1973373;72;20221;-72
2021/10/04 13:07:01;;;;;;;;;;;20.30;99.90;;;;;;1975220;72;20226;-72
2021/10/04 13:09:27;;;;;;;;;;;20.50;99.90;;;;;;1946873;72;20167;-72
2021/10/04 13:11:54;;;;;;;;;;;20.60;99.90;;;;;;1948305;73;20488;-72
2021/10/04 13:14:22;;;;;;;;;;;20.80;99.90;;;;;;1942312;73;20111;-72
2021/10/04 13:16:49;;;;;;;;;;;20.80;99.90;;;;;;1945753;73;20268;-72
2021/10/04 13:19:21;;;;;;;;;;;20.80;99.90;;;;;;1943490;73;20264;-71
2021/10/04 13:21:45;;;;;;;;;;;20.90;99.90;;;;;;1944084;73;20186;-72
2021/10/04 13:24:13;;;;;;;;;;;20.70;99.90;;;;;;1945928;73;20244;-72
2021/10/04 13:26:40;;;;;;;;;;;20.80;99.90;;;;;;1948366;73;20217;-71
2021/10/04 13:29:07;;;;;;;;;;;20.90;99.90;;;;;;1946857;73;20224;-72
2021/10/04 13:31:34;;;;;;;;;;;21.00;99.90;;;;;;1946659;73;20221;-72
2021/10/04 13:34:01;;;;;;;;;;;20.90;99.90;;;;;;1947923;73;20370;-72
2021/10/04 13:36:28;;;;;;;;;;;20.70;99.90;;;;;;1947171;73;20186;-72
2021/10/04 13:38:55;;;;;;;;;;;20.80;99.90;;;;;;1945480;73;20175;-72
2021/10/04 13:41:22;;;;;;;;;;;20.80;99.90;;;;;;1951627;73;20189;-72
2021/10/04 13:43:49;;;;;;;;;;;20.70;99.90;;;;;;1945537;73;20260;-71
2021/10/04 13:46:16;;;;;;;;;;;20.50;99.90;;;;;;1950073;73;20169;-71
2021/10/04 13:48:43;;;;;;;;;;;20.40;99.90;;;;;;1946420;73;20162;-71
2021/10/04 13:51:10;;;;;;;;;;;20.30;99.90;;;;;;1945763;73;20156;-70
2021/10/04 13:53:37;;;;;;;;;;;20.40;99.90;;;;;;1941937;73;20207;-70
2021/10/04 13:56:04;;;;;;;;;;;20.20;99.90;;;;;;1947704;73;20442;-71
2021/10/04 13:58:32;;;;;;;;;;;20.20;99.90;;;;;;1944415;73;20214;-71
2021/10/04 14:01:00;;;;;;;;;;;20.30;99.90;;;;;;1946101;73;20171;-71
2021/10/04 14:03:27;;;;;;;;;;;20.40;99.90;;;;;;1948660;73;20208;-71
2021/10/04 14:05:55;;;;;;;;;;;20.20;99.90;;;;;;1946271;73;20119;-71
2021/10/04 14:08:22;;;;;;;;;;;20.50;99.90;;;;;;1947738;73;20465;-71
2021/10/04 14:10:49;;;;;;;;;;;20.40;99.90;;;;;;1944729;73;20205;-71
2021/10/04 14:13:16;;;;;;;;;;;20.60;99.90;;;;;;1944790;73;20181;-71
2021/10/04 14:15:43;;;;;;;;;;;20.70;99.90;;;;;;1948807;73;20856;-69
2021/10/04 14:18:09;;;;;;;;;;;20.80;99.90;;;;;;1944155;73;20194;-73
2021/10/04 14:20:36;;;;;;;;;;;20.60;99.90;;;;;;1946428;73;20482;-74